Fabian Garcia SC

2021-04-18 21:55:00

  • imperial
Date Time Air Temperature Relative Humidity Dewpoint Windchill Heat Index Wind Speed Wind Dir. Rain Solar Radiation Soil Temperature
2m 2m 3m 3m 10cm
US/Mountain F % F F F MPH deg in MJ/m^2 F
max avg avg
2021-04-17 22:00:00 53.5 39.4 29.4 53.5 53.5 10.1 11.9 7.7 127.0 119.2 0.00 0.0000061 62.0
2021-04-17 22:05:00 53.7 39.5 29.6 53.7 53.7 9.7 10.1 6.6 127.8 120.6 0.00 0.0000000 61.9
2021-04-17 22:10:00 53.5 39.6 29.5 53.5 53.5 7.6 11.0 7.1 82.6 120.6 0.00 0.0000000 61.9
2021-04-17 22:15:00 53.5 39.4 29.4 53.5 53.5 5.6 10.3 7.0 96.2 116.9 0.00 0.0000000 61.7
2021-04-17 22:20:00 53.6 39.1 29.3 53.6 53.6 4.6 9.7 6.5 84.2 83.6 0.00 0.0000020 61.7
2021-04-17 22:25:00 53.4 39.4 29.3 53.4 53.4 1.5 5.8 3.9 100.2 84.7 0.00 0.0000020 61.6
2021-04-17 22:30:00 53.7 38.9 29.3 53.7 53.7 3.0 9.7 3.9 123.4 117.5 0.00 0.0000000 61.5
2021-04-17 22:35:00 53.5 39.0 29.2 53.5 53.5 4.4 6.7 3.8 145.9 143.7 0.00 0.0000000 61.5
2021-04-17 22:40:00 53.2 39.9 29.4 53.2 53.2 4.0 4.9 2.2 128.2 175.9 0.00 0.0000020 61.4
2021-04-17 22:45:00 53.1 40.1 29.4 53.1 53.1 3.1 4.6 2.4 174.5 154.8 0.00 0.0000020 61.3
2021-04-17 22:50:00 52.8 40.4 29.3 52.8 52.8 0.0 3.7 1.9 194.7 187.4 0.00 0.0000000 61.2
2021-04-17 22:55:00 53.4 39.1 29.1 53.4 53.4 6.0 8.1 4.2 105.2 110.0 0.00 0.0000000 61.2
2021-04-17 23:00:00 53.1 39.5 29.0 53.1 53.1 1.7 5.8 4.3 87.4 131.2 0.00 0.0000000 61.1
2021-04-17 23:05:00 52.9 39.9 29.2 52.9 52.9 1.7 5.6 3.5 129.8 128.1 0.00 0.0000000 61.0
2021-04-17 23:10:00 52.9 39.9 29.1 52.9 52.9 0.8 4.6 2.5 120.4 133.7 0.00 0.0000000 61.0
2021-04-17 23:15:00 53.6 38.7 29.0 53.6 53.6 9.0 14.6 7.2 81.6 102.6 0.00 0.0000000 60.9
2021-04-17 23:20:00 53.4 38.5 28.7 53.4 53.4 7.8 11.2 7.9 120.5 101.8 0.00 0.0000000 60.8
2021-04-17 23:25:00 53.7 38.8 29.2 53.7 53.7 2.6 9.6 5.8 162.8 100.3 0.00 0.0000000 60.8
2021-04-17 23:30:00 52.9 39.9 29.1 52.9 52.9 1.9 5.3 2.7 207.8 150.6 0.00 0.0000000 60.7
2021-04-17 23:35:00 52.2 40.8 29.1 52.2 52.2 6.0 6.9 4.0 143.2 173.5 0.00 0.0000000 60.6
2021-04-17 23:40:00 52.2 41.2 29.3 52.2 52.2 1.3 6.5 3.7 178.4 143.2 0.00 0.0000000 60.6
2021-04-17 23:45:00 52.1 40.3 28.7 52.1 52.1 6.5 8.7 4.9 128.0 129.8 0.00 0.0000000 60.5
2021-04-17 23:50:00 52.3 40.3 28.8 52.3 52.3 8.7 10.5 6.4 121.1 123.4 0.00 0.0000000 60.5
2021-04-17 23:55:00 52.3 39.8 28.5 52.3 52.3 3.8 11.9 6.8 115.2 126.1 0.00 0.0000000 60.4
2021-04-18 00:00:00 52.3 39.6 28.5 52.3 52.3 5.3 10.1 6.0 127.3 120.7 0.00 0.0000000 60.3
2021-04-18 00:05:00 52.6 39.3 28.5 52.6 52.6 12.2 12.2 7.2 99.4 115.7 0.00 0.0000000 60.3
2021-04-18 00:10:00 52.5 40.4 29.1 52.5 52.5 9.6 13.5 8.3 117.7 107.4 0.00 0.0000020 60.2
2021-04-18 00:15:00 52.2 42.7 30.2 52.2 52.2 9.2 9.2 6.5 163.7 115.3 0.00 0.0000020 60.1
2021-04-18 00:20:00 52.0 49.0 33.5 52.0 52.0 5.6 11.3 7.6 111.6 112.9 0.00 0.0000000 60.1
2021-04-18 00:25:00 51.4 51.5 34.1 51.4 51.4 4.7 10.8 7.3 93.2 102.6 0.00 0.0000000 60.0
2021-04-18 00:30:00 51.2 47.4 31.8 51.2 51.2 8.5 13.3 9.8 106.2 91.5 0.00 0.0000000 60.0
2021-04-18 00:35:00 51.1 47.6 31.9 51.1 51.1 8.3 12.1 7.8 114.0 96.1 0.00 0.0000000 59.9
2021-04-18 00:40:00 51.3 45.6 31.0 51.3 51.3 9.0 11.7 7.3 132.1 103.2 0.00 0.0000000 59.9
2021-04-18 00:45:00 51.7 43.4 30.1 51.7 51.7 8.7 14.0 10.2 69.0 93.4 0.00 0.0000000 59.8
2021-04-18 00:50:00 51.8 42.5 29.7 51.8 51.8 7.4 12.4 8.9 49.4 75.9 0.00 0.0000000 59.8
2021-04-18 00:55:00 51.8 41.4 29.1 51.8 51.8 7.6 8.5 5.9 85.2 81.5 0.00 0.0000000 59.7
2021-04-18 01:00:00 51.8 40.6 28.6 51.8 51.8 7.6 11.0 6.8 101.6 72.5 0.00 0.0000000 59.6
2021-04-18 01:05:00 51.9 40.1 28.4 51.9 51.9 6.2 11.3 6.9 70.7 59.7 0.00 0.0000000 59.6
2021-04-18 01:10:00 52.2 40.4 28.8 52.2 52.2 3.0 10.5 4.8 89.4 83.9 0.00 0.0000000 59.5
2021-04-18 01:15:00 52.2 41.3 29.4 52.2 52.2 3.5 5.8 2.9 123.4 130.6 0.00 0.0000000 59.5
2021-04-18 01:20:00 52.0 41.2 29.1 52.0 52.0 3.7 4.6 3.3 142.5 129.0 0.00 0.0000000 59.4
2021-04-18 01:25:00 51.7 40.2 28.2 51.7 51.7 5.8 6.0 3.8 135.7 127.4 0.00 0.0000000 59.4
2021-04-18 01:30:00 51.9 40.0 28.3 51.9 51.9 3.8 7.6 4.8 132.7 128.1 0.00 0.0000000 59.3
2021-04-18 01:35:00 52.0 39.7 28.2 52.0 52.0 4.9 5.8 4.1 121.8 133.9 0.00 0.0000000 59.3
2021-04-18 01:40:00 51.7 39.6 27.8 51.7 51.7 6.0 13.1 7.6 121.3 109.9 0.00 0.0000000 59.2
2021-04-18 01:45:00 51.7 39.3 27.7 51.7 51.7 11.3 11.3 7.9 115.2 103.1 0.00 0.0000000 59.1
2021-04-18 01:50:00 51.4 39.2 27.4 51.4 51.4 5.8 11.7 7.7 87.2 103.3 0.00 0.0000000 59.1
2021-04-18 01:55:00 51.1 39.0 27.0 51.1 51.1 6.9 10.3 6.2 133.0 112.7 0.00 0.0000000 59.1
2021-04-18 02:00:00 50.9 39.3 27.0 50.9 50.9 9.2 9.4 6.7 90.4 101.9 0.00 0.0000000 59.0
2021-04-18 02:05:00 50.9 39.8 27.3 50.9 50.9 5.6 9.2 4.6 85.8 98.8 0.00 0.0000000 58.9
2021-04-18 02:10:00 51.2 38.7 26.9 51.2 51.2 6.5 7.4 4.8 118.5 100.4 0.00 0.0000000 58.9
2021-04-18 02:15:00 51.0 38.1 26.4 51.0 51.0 6.0 11.7 6.9 104.4 112.4 0.00 0.0000000 58.8
2021-04-18 02:20:00 51.2 38.7 26.9 51.2 51.2 3.8 10.5 6.5 26.2 94.3 0.00 0.0000000 58.8
2021-04-18 02:25:00 51.3 38.4 26.8 51.3 51.3 5.3 5.8 4.0 85.6 91.7 0.00 0.0000000 58.7
2021-04-18 02:30:00 50.9 38.9 26.8 50.9 50.9 4.7 6.2 4.1 75.0 79.4 0.00 0.0000000 58.7
2021-04-18 02:35:00 51.4 37.8 26.5 51.4 51.4 5.1 9.7 5.9 117.6 88.6 0.00 0.0000000 58.6
2021-04-18 02:40:00 50.8 38.3 26.3 50.8 50.8 3.5 10.1 5.7 94.6 103.9 0.00 0.0000000 58.6
2021-04-18 02:45:00 50.6 39.2 26.6 50.6 50.6 4.4 5.8 3.2 161.0 135.3 0.00 0.0000000 58.6
2021-04-18 02:50:00 50.6 39.5 26.8 50.6 50.6 4.9 6.9 4.3 135.7 127.6 0.00 0.0000000 58.5
2021-04-18 02:55:00 50.6 40.8 27.6 50.6 50.6 4.9 8.0 5.5 107.6 107.3 0.00 0.0000000 58.4
2021-04-18 03:00:00 49.9 45.3 29.5 47.4 49.9 6.2 8.7 5.0 139.7 127.4 0.00 0.0000000 58.4
2021-04-18 03:05:00 49.0 51.3 31.7 48.4 49.0 3.1 10.3 4.9 115.4 141.8 0.00 0.0000000 58.4
2021-04-18 03:10:00 48.3 53.5 32.2 46.2 48.3 4.9 6.5 4.6 141.0 149.9 0.00 0.0000000 58.3
2021-04-18 03:15:00 48.3 53.0 32.0 48.3 48.3 2.6 6.7 4.3 134.0 137.5 0.00 0.0000000 58.3
2021-04-18 03:20:00 48.3 53.7 32.3 48.3 48.3 2.2 4.6 2.8 183.3 142.4 0.00 0.0000000 58.2
2021-04-18 03:25:00 48.4 53.8 32.4 45.2 48.4 7.1 7.2 3.8 114.8 136.0 0.00 0.0000000 58.2
2021-04-18 03:30:00 48.2 54.7 32.6 46.9 48.2 3.8 6.0 4.4 144.1 139.2 0.00 0.0000000 58.2
2021-04-18 03:35:00 47.8 55.8 32.7 47.8 47.8 2.8 4.9 3.1 201.1 164.5 0.00 0.0000000 58.1
2021-04-18 03:40:00 48.0 56.4 33.2 48.0 48.0 2.2 6.3 3.3 122.8 139.1 0.00 0.0000000 58.1
2021-04-18 03:45:00 47.4 57.1 33.0 47.4 47.4 1.7 6.9 3.8 139.0 152.0 0.00 0.0000000 58.0
2021-04-18 03:50:00 47.6 57.5 33.3 45.1 47.6 5.5 5.5 3.6 113.9 132.0 0.00 0.0000000 58.0
2021-04-18 03:55:00 47.7 57.4 33.4 45.8 47.7 4.6 9.0 4.0 110.2 125.4 0.00 0.0000000 58.0
2021-04-18 04:00:00 47.3 58.3 33.4 43.6 47.3 7.8 11.3 7.6 131.7 115.9 0.00 0.0000000 57.9
2021-04-18 04:05:00 47.4 58.7 33.7 44.4 47.4 6.2 9.2 6.9 113.3 118.0 0.00 0.0000000 57.9
2021-04-18 04:10:00 47.3 58.2 33.4 44.8 47.3 5.5 6.9 5.3 108.1 125.8 0.00 0.0000000 57.8
2021-04-18 04:15:00 47.4 58.6 33.7 46.6 47.4 3.1 6.7 4.7 144.4 125.0 0.00 0.0000000 57.8
2021-04-18 04:20:00 47.4 57.1 33.0 43.9 47.4 7.4 7.4 3.7 109.3 137.7 0.00 0.0000000 57.8
2021-04-18 04:25:00 47.8 56.7 33.2 45.5 47.8 5.3 7.8 4.3 126.6 135.2 0.00 0.0000000 57.7
2021-04-18 04:30:00 47.8 55.4 32.6 45.5 47.8 5.3 7.6 4.8 133.5 135.3 0.00 0.0000000 57.7
2021-04-18 04:35:00 48.4 54.1 32.6 46.0 48.4 5.6 6.2 4.9 143.0 127.6 0.00 0.0000000 57.6
2021-04-18 04:40:00 48.2 53.8 32.2 48.2 48.2 2.8 8.3 4.0 119.2 124.9 0.00 0.0000000 57.6
2021-04-18 04:45:00 49.2 53.4 32.9 47.7 49.2 4.2 5.3 3.5 46.8 107.8 0.00 0.0000000 57.6
2021-04-18 04:50:00 49.2 53.6 33.0 46.7 49.2 5.8 5.8 4.6 112.3 81.9 0.00 0.0000000 57.5
2021-04-18 04:55:00 49.1 51.4 31.9 47.0 49.1 5.3 9.6 4.8 103.1 101.3 0.00 0.0000000 57.5
2021-04-18 05:00:00 48.4 52.9 32.0 47.7 48.4 3.1 7.6 5.4 139.8 127.9 0.00 0.0000000 57.5
2021-04-18 05:05:00 48.5 52.7 32.0 47.1 48.5 4.0 10.1 6.6 136.4 117.0 0.00 0.0000000 57.4
2021-04-18 05:10:00 47.9 52.7 31.4 45.6 47.9 5.3 10.3 6.1 139.0 117.5 0.00 0.0000000 57.4
2021-04-18 05:15:00 48.1 52.8 31.6 44.9 48.1 6.9 13.0 7.3 115.7 115.5 0.00 0.0000000 57.4
2021-04-18 05:20:00 48.1 52.5 31.6 44.1 48.1 8.8 11.3 7.1 122.0 117.1 0.00 0.0000000 57.3
2021-04-18 05:25:00 48.0 52.4 31.4 44.5 48.0 7.6 10.5 6.5 103.6 116.2 0.00 0.0000000 57.3
2021-04-18 05:30:00 48.1 52.7 31.7 45.8 48.1 5.3 8.3 5.6 143.8 124.4 0.00 0.0000000 57.3
2021-04-18 05:35:00 47.9 52.7 31.4 45.7 47.9 5.1 9.0 6.3 159.7 118.7 0.00 0.0000000 57.2
2021-04-18 05:40:00 47.9 52.9 31.5 45.2 47.9 5.8 8.7 5.9 116.8 116.3 0.00 0.0000000 57.2
2021-04-18 05:45:00 48.0 53.0 31.7 44.0 48.0 8.8 9.2 6.3 130.6 107.7 0.00 0.0000000 57.2
2021-04-18 05:50:00 48.0 53.3 31.8 46.8 48.0 3.7 11.2 6.3 182.9 117.3 0.00 0.0000000 57.1
2021-04-18 05:55:00 47.8 53.5 31.7 45.1 47.8 6.0 8.5 5.7 102.1 115.4 0.00 0.0000000 57.1
2021-04-18 06:00:00 48.1 53.1 31.8 43.3 48.1 10.8 11.3 6.6 96.3 103.8 0.00 0.0000000 57.1
2021-04-18 06:05:00 48.1 53.1 31.8 45.2 48.1 6.3 9.9 6.5 104.8 102.6 0.00 0.0000000 57.0
2021-04-18 06:10:00 48.5 52.8 32.1 48.5 48.5 1.0 6.9 4.1 88.3 88.9 0.00 0.0000000 57.0
2021-04-18 06:15:00 48.7 52.5 32.1 46.7 48.7 5.1 7.1 2.0 109.6 95.0 0.00 0.0000000 56.9
2021-04-18 06:20:00 48.8 52.5 32.2 46.9 48.8 4.7 8.5 5.0 126.0 116.3 0.00 0.0000162 56.9
2021-04-18 06:25:00 48.5 53.0 32.1 47.7 48.5 3.3 7.6 4.7 150.9 122.3 0.00 0.0001213 56.9
2021-04-18 06:30:00 48.4 53.2 32.2 46.5 48.4 4.7 6.7 4.6 109.7 136.2 0.00 0.0002750 56.9
2021-04-18 06:35:00 47.9 53.5 31.8 44.8 47.9 6.7 6.7 4.7 107.9 124.7 0.00 0.0005863 56.8
2021-04-18 06:40:00 48.4 53.0 32.0 45.5 48.4 6.3 10.3 5.9 110.0 115.4 0.00 0.0010736 56.8
2021-04-18 06:45:00 48.0 53.7 32.0 44.6 48.0 7.4 9.2 6.7 125.0 116.4 0.00 0.0018277 56.8
2021-04-18 06:50:00 47.9 54.0 32.0 46.4 47.9 4.0 10.1 5.4 140.6 118.4 0.00 0.0025879 56.7
2021-04-18 06:55:00 48.0 53.8 32.0 45.6 48.0 5.5 9.0 5.2 104.0 104.1 0.00 0.0040153 56.7
2021-04-18 07:00:00 48.2 53.5 32.1 48.2 48.2 1.7 7.4 4.9 107.8 102.9 0.00 0.0054790 56.7
2021-04-18 07:05:00 48.4 53.6 32.3 47.5 48.4 3.3 3.7 2.0 155.1 137.3 0.00 0.0062937 56.6
2021-04-18 07:10:00 48.3 54.4 32.6 48.3 48.3 0.8 3.5 1.1 153.5 141.1 0.00 0.0060592 56.6
2021-04-18 07:15:00 47.9 55.1 32.6 47.9 47.9 1.9 3.1 0.9 30.4 91.3 0.00 0.0092557 56.6
2021-04-18 07:20:00 48.3 54.1 32.5 48.3 48.3 0.0 3.8 1.4 145.5 67.7 0.00 0.0144312 56.6
2021-04-18 07:25:00 48.2 53.7 32.2 48.2 48.2 0.0 1.7 0.3 198.5 211.7 0.00 0.0134911 56.5
2021-04-18 07:30:00 48.4 55.4 33.1 48.4 48.4 0.0 0.0 0.0 322.9 0.0 0.00 0.0140592 56.5
2021-04-18 07:35:00 48.4 53.4 32.3 48.4 48.4 1.7 2.6 1.1 113.1 133.5 0.00 0.0140512 56.5
2021-04-18 07:40:00 48.5 53.0 32.2 46.8 48.5 4.6 5.5 3.6 153.6 134.0 0.00 0.0190876 56.5
2021-04-18 07:45:00 48.7 52.5 32.1 47.7 48.7 3.7 5.6 3.6 118.1 139.3 0.00 0.0198660 56.4
2021-04-18 07:50:00 48.8 52.1 32.0 46.0 48.8 6.5 9.6 5.9 91.3 101.8 0.00 0.0221406 56.4
2021-04-18 07:55:00 49.1 51.8 32.1 45.2 49.1 9.0 11.5 6.7 60.8 96.8 0.00 0.0247610 56.4
2021-04-18 08:00:00 49.2 51.6 32.1 46.4 49.2 6.5 10.1 6.3 102.2 98.8 0.00 0.0244053 56.4
2021-04-18 08:05:00 49.6 50.7 32.1 46.2 49.6 8.1 10.8 6.6 101.7 105.6 0.00 0.0258279 56.4
2021-04-18 08:10:00 49.5 50.8 32.0 46.1 49.5 8.1 10.3 8.0 90.7 104.3 0.00 0.0312925 56.4
2021-04-18 08:15:00 49.7 50.0 31.8 46.6 49.7 7.4 12.1 6.9 86.3 96.6 0.00 0.0359907 56.4
2021-04-18 08:20:00 49.4 50.7 31.8 45.1 49.4 10.6 14.7 8.9 98.7 100.0 0.00 0.0389939 56.4
2021-04-18 08:25:00 49.6 51.0 32.2 47.5 49.6 5.5 11.0 7.1 89.7 103.7 0.00 0.0439405 56.3
2021-04-18 08:30:00 49.6 50.0 31.7 46.0 49.6 8.5 10.3 7.5 87.0 89.9 0.00 0.0457085 56.3
2021-04-18 08:35:00 49.7 49.9 31.8 45.1 49.7 11.9 11.9 8.3 84.1 96.0 0.00 0.0462072 56.3
2021-04-18 08:40:00 49.7 49.8 31.7 47.4 49.7 5.8 12.1 8.3 134.5 100.4 0.00 0.0492252 56.3
2021-04-18 08:45:00 49.7 49.2 31.5 45.2 49.7 11.5 12.1 7.9 73.1 111.0 0.00 0.0544482 56.3
2021-04-18 08:50:00 50.1 51.0 32.6 50.1 50.1 7.4 10.3 6.7 130.7 111.5 0.00 0.0568230 56.3
2021-04-18 08:55:00 50.3 49.1 31.9 50.3 50.3 8.1 12.1 8.3 128.4 103.1 0.00 0.0546194 56.3
2021-04-18 09:00:00 50.1 49.4 31.8 50.1 50.1 9.2 13.3 8.6 99.3 108.1 0.00 0.0560495 56.3
2021-04-18 09:05:00 50.3 49.0 31.8 50.3 50.3 6.7 10.8 7.5 131.5 107.8 0.00 0.0561490 56.3
2021-04-18 09:10:00 50.1 49.4 31.9 50.1 50.1 6.2 13.1 7.2 96.1 110.3 0.00 0.0563832 56.3
2021-04-18 09:15:00 50.1 49.7 32.0 50.1 50.1 5.3 13.1 9.1 142.9 104.9 0.00 0.0571769 56.3
2021-04-18 09:20:00 50.6 48.4 31.8 50.6 50.6 5.1 10.5 6.2 112.9 108.1 0.00 0.0589614 56.3
2021-04-18 09:25:00 50.6 49.6 32.5 50.6 50.6 3.5 11.0 8.1 118.8 110.4 0.00 0.0645434 56.3
2021-04-18 09:30:00 51.0 47.9 32.0 51.0 51.0 5.1 11.2 8.0 128.1 108.3 0.00 0.0724294 56.2
2021-04-18 09:35:00 51.1 46.7 31.4 51.1 51.1 6.9 9.4 6.2 114.6 113.4 0.00 0.0812824 56.2
2021-04-18 09:40:00 51.9 46.0 31.8 51.9 51.9 6.2 11.3 6.5 110.4 115.7 0.00 0.0850072 56.2
2021-04-18 09:45:00 52.1 45.7 31.8 52.1 52.1 5.8 9.0 6.6 125.7 112.0 0.00 0.0844540 56.2
2021-04-18 09:50:00 52.4 46.1 32.3 52.4 52.4 11.9 12.1 7.2 92.9 114.1 0.00 0.0802724 56.2
2021-04-18 09:55:00 52.1 49.3 33.7 52.1 52.1 7.6 11.2 8.4 54.1 57.8 0.00 0.0830852 56.2
2021-04-18 10:00:00 51.8 45.7 31.5 51.8 51.8 6.5 8.7 5.9 116.4 68.7 0.00 0.0835484 56.2
2021-04-18 10:05:00 52.1 45.1 31.5 52.1 52.1 6.9 9.0 6.6 109.1 105.4 0.00 0.0874115 56.2
2021-04-18 10:10:00 52.5 44.8 31.6 52.5 52.5 5.5 10.1 6.3 121.7 129.4 0.00 0.1078837 56.3
2021-04-18 10:15:00 53.0 44.2 31.8 53.0 53.0 6.5 8.8 5.9 122.0 120.3 0.00 0.1085348 56.3
2021-04-18 10:20:00 53.2 43.2 31.3 53.2 53.2 8.1 11.5 7.8 157.5 106.5 0.00 0.1046469 56.3
2021-04-18 10:25:00 53.2 43.2 31.3 53.2 53.2 13.3 13.3 8.6 96.1 97.0 0.00 0.1111290 56.3
2021-04-18 10:30:00 53.2 43.8 31.7 53.2 53.2 9.0 14.9 10.0 105.6 95.6 0.00 0.1632558 56.3
2021-04-18 10:35:00 54.2 42.4 31.8 54.2 54.2 9.6 13.5 8.0 99.3 106.9 0.00 0.2135615 56.3
2021-04-18 10:40:00 54.7 42.9 32.5 54.7 54.7 5.6 9.9 7.6 103.7 105.1 0.00 0.3122119 56.4
2021-04-18 10:45:00 55.2 42.4 32.7 55.2 55.2 6.3 8.3 6.4 140.0 122.1 0.00 0.2464586 56.4
2021-04-18 10:50:00 54.5 42.1 31.9 54.5 54.5 8.0 9.7 6.3 95.3 106.3 0.00 0.1847949 56.4
2021-04-18 10:55:00 53.8 43.6 32.2 53.8 53.8 6.3 11.7 6.4 88.0 118.9 0.00 0.1248787 56.5
2021-04-18 11:00:00 53.1 44.4 32.0 53.1 53.1 5.6 8.7 6.2 128.3 120.2 0.00 0.0787079 56.5
2021-04-18 11:05:00 52.9 44.3 31.8 52.9 52.9 8.8 9.6 7.3 105.7 111.7 0.00 0.0753675 56.5
2021-04-18 11:10:00 53.0 44.8 32.1 53.0 53.0 7.4 9.2 6.8 148.5 115.3 0.00 0.0971202 56.6
2021-04-18 11:15:00 53.4 44.0 32.0 53.4 53.4 7.1 10.5 6.6 111.8 115.9 0.00 0.1429631 56.6
2021-04-18 11:20:00 54.1 42.7 31.9 54.1 54.1 8.8 8.8 6.5 101.4 117.9 0.00 0.1848128 56.6
2021-04-18 11:25:00 53.4 44.3 32.1 53.4 53.4 8.0 10.6 7.3 89.7 108.7 0.00 0.1149293 56.7
2021-04-18 11:30:00 54.0 43.9 32.5 54.0 54.0 6.7 12.6 7.2 117.7 114.0 0.00 0.1614655 56.7
2021-04-18 11:35:00 55.0 41.7 32.1 55.0 55.0 9.7 13.7 8.4 112.5 116.8 0.00 0.3585325 56.8
2021-04-18 11:40:00 56.0 41.4 32.9 56.0 56.0 10.8 13.9 8.0 60.0 111.1 0.00 0.2717610 56.8
2021-04-18 11:45:00 55.0 42.4 32.5 55.0 55.0 5.8 13.3 9.0 122.6 113.7 0.00 0.1640927 56.9
2021-04-18 11:50:00 54.9 42.4 32.5 54.9 54.9 4.9 10.3 6.6 131.4 120.9 0.00 0.1517443 56.9
2021-04-18 11:55:00 55.1 42.1 32.4 55.1 55.1 5.6 14.0 7.7 112.8 107.0 0.00 0.1340250 57.0
2021-04-18 12:00:00 54.2 43.8 32.6 54.2 54.2 10.6 11.3 8.3 77.2 106.5 0.00 0.1406572 57.0
2021-04-18 12:05:00 54.7 43.2 32.7 54.7 54.7 8.8 13.0 9.1 97.3 100.8 0.00 0.1433376 57.1
2021-04-18 12:10:00 54.8 42.9 32.6 54.8 54.8 6.2 13.3 8.2 128.7 104.3 0.00 0.1581785 57.1
2021-04-18 12:15:00 55.9 41.5 32.8 55.9 55.9 6.0 11.2 7.2 122.7 135.3 0.00 0.1642323 57.2
2021-04-18 12:20:00 55.6 42.0 32.9 55.6 55.6 5.8 11.3 7.7 108.2 121.9 0.00 0.1411146 57.3
2021-04-18 12:25:00 55.9 41.5 32.8 55.9 55.9 8.5 10.1 6.7 92.1 124.0 0.00 0.1764993 57.3
2021-04-18 12:30:00 55.7 42.1 33.0 55.7 55.7 6.3 11.9 8.2 130.6 116.8 0.00 0.1845723 57.4
2021-04-18 12:35:00 56.4 41.7 33.3 56.4 56.4 6.0 9.4 6.8 181.3 143.3 0.00 0.1383368 57.4
2021-04-18 12:40:00 55.4 42.8 33.2 55.4 55.4 7.1 12.4 8.4 129.3 134.9 0.00 0.1521871 57.5
2021-04-18 12:45:00 56.4 41.1 33.0 56.4 56.4 5.5 11.9 6.4 205.1 134.0 0.00 0.1613099 57.5
2021-04-18 12:50:00 56.6 41.6 33.5 56.6 56.6 4.2 8.5 6.6 132.6 137.2 0.00 0.1810234 57.6
2021-04-18 12:55:00 56.6 40.9 33.1 56.6 56.6 7.8 12.8 7.6 122.1 132.0 0.00 0.1774866 57.7
2021-04-18 13:00:00 56.5 40.9 33.0 56.5 56.5 10.5 11.0 8.1 107.9 133.7 0.00 0.1925111 57.7
2021-04-18 13:05:00 56.4 41.4 33.2 56.4 56.4 11.0 12.1 8.0 171.2 142.5 0.00 0.2142650 57.8
2021-04-18 13:10:00 57.2 40.1 33.2 57.2 57.2 11.2 11.5 7.3 109.0 124.2 0.00 0.2003624 57.8
2021-04-18 13:15:00 57.0 40.7 33.4 57.0 57.0 6.0 12.2 7.8 156.3 128.6 0.00 0.2176202 57.9
2021-04-18 13:20:00 56.9 40.2 32.9 56.9 56.9 9.4 12.6 7.5 117.2 133.3 0.00 0.1692207 57.9
2021-04-18 13:25:00 57.0 40.3 33.1 57.0 57.0 7.8 11.7 7.4 118.4 121.9 0.00 0.1811933 58.0
2021-04-18 13:30:00 57.2 39.7 32.9 57.2 57.2 8.0 13.3 7.7 133.0 118.3 0.00 0.1758793 58.0
2021-04-18 13:35:00 58.7 38.1 33.2 58.7 58.7 6.2 9.7 6.4 136.5 131.2 0.00 0.2588478 58.1
2021-04-18 13:40:00 58.0 40.4 34.1 58.0 58.0 6.7 12.8 7.9 121.0 135.3 0.00 0.1665030 58.2
2021-04-18 13:45:00 58.5 39.2 33.7 58.5 58.5 3.0 10.6 6.3 323.4 127.1 0.00 0.1874006 58.2
2021-04-18 13:50:00 59.3 37.6 33.4 59.3 59.3 9.2 11.7 7.3 136.6 131.4 0.00 0.3199582 58.3
2021-04-18 13:55:00 58.5 38.4 33.2 58.5 58.5 10.8 10.8 8.3 138.1 140.7 0.00 0.1851287 58.4
2021-04-18 14:00:00 58.5 39.0 33.6 58.5 58.5 6.3 13.1 7.4 138.5 136.1 0.00 0.1831076 58.4
2021-04-18 14:05:00 59.3 37.8 33.5 59.3 59.3 6.5 11.9 7.1 140.3 143.5 0.00 0.3030935 58.5
2021-04-18 14:10:00 59.4 37.8 33.6 59.4 59.4 5.5 10.6 7.0 175.9 149.2 0.00 0.2476668 58.6
2021-04-18 14:15:00 59.9 36.2 33.0 59.9 59.9 6.7 10.6 6.8 157.1 149.6 0.00 0.2839556 58.7
2021-04-18 14:20:00 60.1 36.8 33.6 60.1 60.1 7.2 12.6 8.0 140.8 148.5 0.00 0.2618532 58.8
2021-04-18 14:25:00 60.7 36.8 34.1 60.7 60.7 5.5 8.7 5.7 116.1 140.5 0.00 0.1901039 58.9
2021-04-18 14:30:00 60.8 36.4 33.9 60.8 60.8 6.2 10.1 5.7 138.0 132.6 0.00 0.2030844 58.9
2021-04-18 14:35:00 59.4 38.0 33.7 59.4 59.4 6.5 9.9 7.4 155.4 117.3 0.00 0.1923160 59.1
2021-04-18 14:40:00 59.7 36.8 33.3 59.7 59.7 7.8 11.3 6.4 115.7 131.9 0.00 0.1784796 59.2
2021-04-18 14:45:00 60.6 35.3 33.0 60.6 60.6 8.0 10.1 6.7 124.5 136.1 0.00 0.2472126 59.3
2021-04-18 14:50:00 59.9 36.1 33.0 59.9 59.9 6.7 9.7 6.1 119.4 124.9 0.00 0.1527268 59.4
2021-04-18 14:55:00 59.6 37.1 33.4 59.6 59.6 4.7 10.8 7.1 112.6 140.6 0.00 0.1437624 59.5
2021-04-18 15:00:00 59.7 36.6 33.1 59.7 59.7 8.0 11.9 7.5 136.6 140.5 0.00 0.1919791 59.6
2021-04-18 15:05:00 60.0 36.7 33.4 60.0 60.0 9.7 14.9 8.5 149.4 134.7 0.00 0.2188299 59.6
2021-04-18 15:10:00 61.0 36.1 33.9 61.0 61.0 5.5 9.6 6.1 119.1 159.0 0.00 0.2275053 59.8
2021-04-18 15:15:00 61.9 34.7 33.7 61.9 61.9 4.0 8.7 5.5 158.5 149.6 0.00 0.2587859 59.8
2021-04-18 15:20:00 61.7 34.3 33.2 61.7 61.7 9.6 10.1 6.1 143.7 129.8 0.00 0.1701451 59.9
2021-04-18 15:25:00 60.6 35.4 33.0 60.6 60.6 5.1 10.3 6.0 145.3 122.4 0.00 0.2259092 60.0
2021-04-18 15:30:00 60.3 36.0 33.2 60.3 60.3 4.0 9.2 6.2 130.6 109.6 0.00 0.1520273 60.1
2021-04-18 15:35:00 61.1 35.6 33.7 61.1 61.1 3.7 8.1 5.6 133.7 112.1 0.00 0.1877676 60.2
2021-04-18 15:40:00 60.9 35.4 33.3 60.9 60.9 6.9 11.5 6.5 136.3 135.8 0.00 0.1369704 60.3
2021-04-18 15:45:00 59.7 36.6 33.1 59.7 59.7 1.3 8.7 5.4 197.8 117.7 0.00 0.1063204 60.4
2021-04-18 15:50:00 59.6 36.3 32.8 59.6 59.6 6.7 9.0 4.7 1.7 64.5 0.00 0.1158153 60.4
2021-04-18 15:55:00 59.6 36.1 32.7 59.6 59.6 2.4 7.6 3.9 1.7 23.4 0.00 0.1249684 60.5
2021-04-18 16:00:00 59.7 38.2 34.1 59.7 59.7 3.0 6.5 3.7 13.6 36.3 0.00 0.0916786 60.6
2021-04-18 16:05:00 60.5 35.5 33.0 60.5 60.5 5.1 8.1 5.4 9.5 39.3 0.00 0.0953661 60.7
2021-04-18 16:10:00 59.7 36.5 33.1 59.7 59.7 0.8 8.1 4.1 0.3 24.0 0.00 0.0885990 60.7
2021-04-18 16:15:00 59.6 37.5 33.6 59.6 59.6 2.4 7.1 3.3 238.0 333.7 0.00 0.0783798 60.8
2021-04-18 16:20:00 59.7 36.1 32.8 59.7 59.7 9.4 9.4 5.3 24.3 345.8 0.00 0.0874355 60.9
2021-04-18 16:25:00 60.0 35.8 32.8 60.0 60.0 5.1 9.9 7.5 111.6 76.0 0.00 0.0881528 60.9
2021-04-18 16:30:00 59.4 36.6 32.8 59.4 59.4 2.6 6.7 4.9 41.1 108.8 0.00 0.0914778 61.0
2021-04-18 16:35:00 59.6 36.0 32.6 59.6 59.6 0.0 7.2 2.3 146.3 42.4 0.00 0.0735514 61.0
2021-04-18 16:40:00 59.5 36.3 32.8 59.5 59.5 2.1 6.0 2.1 58.8 83.4 0.00 0.0668195 61.0
2021-04-18 16:45:00 60.1 35.1 32.5 60.1 60.1 7.8 8.8 5.3 81.9 56.8 0.00 0.1047846 61.1
2021-04-18 16:50:00 60.7 34.7 32.7 60.7 60.7 6.2 9.7 7.4 78.7 78.2 0.00 0.2135063 61.1
2021-04-18 16:55:00 61.3 34.1 32.7 61.3 61.3 3.5 6.9 4.5 136.6 106.7 0.00 0.1802702 61.2
2021-04-18 17:00:00 60.8 34.6 32.7 60.8 60.8 2.4 3.5 2.4 116.0 95.4 0.00 0.0781728 61.2
2021-04-18 17:05:00 61.0 35.3 33.4 61.0 61.0 1.3 4.7 2.5 92.0 108.3 0.00 0.1565103 61.3
2021-04-18 17:10:00 61.7 35.3 34.0 61.7 61.7 1.9 4.9 2.5 259.3 193.3 0.00 0.1750884 61.3
2021-04-18 17:15:00 61.1 34.8 33.1 61.1 61.1 0.0 4.2 1.5 320.4 227.0 0.00 0.0558447 61.3
2021-04-18 17:20:00 60.5 35.3 32.9 60.5 60.5 4.0 6.0 0.9 57.2 70.9 0.00 0.0660921 61.3
2021-04-18 17:25:00 60.7 34.3 32.4 60.7 60.7 5.1 7.4 5.5 75.4 71.3 0.00 0.1498192 61.4
2021-04-18 17:30:00 60.1 36.1 33.1 60.1 60.1 5.5 6.3 3.2 84.1 59.0 0.00 0.0419137 61.4
2021-04-18 17:35:00 60.2 35.6 32.9 60.2 60.2 7.4 7.4 5.2 105.4 105.0 0.00 0.0981227 61.4
2021-04-18 17:40:00 60.5 35.4 33.0 60.5 60.5 5.3 9.4 5.8 91.4 128.1 0.00 0.0974636 61.5
2021-04-18 17:45:00 60.0 36.4 33.3 60.0 60.0 6.2 7.6 5.0 124.6 136.2 0.00 0.0515987 61.5
2021-04-18 17:50:00 61.0 34.8 33.0 61.0 61.0 7.6 7.6 4.9 137.7 123.4 0.00 0.0987346 61.5
2021-04-18 17:55:00 60.2 35.9 33.1 60.2 60.2 3.1 9.0 5.0 115.8 124.1 0.00 0.0521192 61.6
2021-04-18 18:00:00 60.2 35.6 32.8 60.2 60.2 4.9 7.8 4.8 124.8 128.2 0.00 0.0768484 61.6
2021-04-18 18:05:00 60.4 35.3 32.9 60.4 60.4 2.6 7.6 4.9 141.6 171.3 0.00 0.0868519 61.6
2021-04-18 18:10:00 61.0 35.1 33.3 61.0 61.0 4.2 7.6 4.7 121.9 142.0 0.00 0.0929625 61.6
2021-04-18 18:15:00 61.3 34.5 33.1 61.3 61.3 4.0 6.3 3.2 172.8 148.5 0.00 0.0821197 61.6
2021-04-18 18:20:00 61.0 34.8 33.0 61.0 61.0 3.1 7.8 4.5 147.0 136.6 0.00 0.0770676 61.6
2021-04-18 18:25:00 60.9 35.5 33.4 60.9 60.9 5.6 7.6 4.4 201.0 169.5 0.00 0.0715499 61.6
2021-04-18 18:30:00 60.8 34.7 32.8 60.8 60.8 4.0 5.3 3.7 140.6 182.0 0.00 0.0670496 61.6
2021-04-18 18:35:00 60.7 35.1 32.9 60.7 60.7 8.7 8.7 4.2 156.4 127.1 0.00 0.0574730 61.6
2021-04-18 18:40:00 60.1 35.9 32.9 60.1 60.1 4.0 8.5 5.2 149.9 121.6 0.00 0.0510518 61.6
2021-04-18 18:45:00 60.0 36.3 33.2 60.0 60.0 3.1 6.5 3.8 141.6 141.3 0.00 0.0461302 61.5
2021-04-18 18:50:00 60.0 35.8 32.8 60.0 60.0 4.7 5.8 3.8 197.1 152.1 0.00 0.0409698 61.5
2021-04-18 18:55:00 60.1 36.5 33.4 60.1 60.1 4.0 8.1 4.2 172.8 166.5 0.00 0.0358965 61.5
2021-04-18 19:00:00 59.7 36.8 33.2 59.7 59.7 3.1 6.7 3.6 107.7 137.5 0.00 0.0305102 61.5
2021-04-18 19:05:00 59.7 37.3 33.6 59.7 59.7 2.2 5.6 3.7 171.3 141.0 0.00 0.0248382 61.5
2021-04-18 19:10:00 59.3 37.5 33.4 59.3 59.3 4.0 5.8 3.8 151.3 153.8 0.00 0.0191201 61.5
2021-04-18 19:15:00 58.8 37.6 33.0 58.8 58.8 4.2 5.5 3.6 136.8 131.7 0.00 0.0093873 61.4
2021-04-18 19:20:00 58.5 38.2 33.1 58.5 58.5 3.5 5.8 3.7 146.8 136.2 0.00 0.0058866 61.4
2021-04-18 19:25:00 58.5 38.6 33.3 58.5 58.5 3.8 4.6 3.3 114.3 123.4 0.00 0.0047090 61.4
2021-04-18 19:30:00 58.3 38.8 33.3 58.3 58.3 7.1 8.1 5.1 133.2 110.2 0.00 0.0035495 61.4
2021-04-18 19:35:00 57.8 39.1 33.1 57.8 57.8 3.0 7.6 4.7 146.5 127.7 0.00 0.0023232 61.3
2021-04-18 19:40:00 57.6 39.1 32.9 57.6 57.6 5.6 7.1 4.2 153.1 127.0 0.00 0.0014263 61.3
2021-04-18 19:45:00 57.5 39.4 33.0 57.5 57.5 3.7 6.5 3.6 138.7 130.3 0.00 0.0008021 61.3
2021-04-18 19:50:00 57.5 40.3 33.5 57.5 57.5 2.1 5.8 2.9 103.8 115.6 0.00 0.0003980 61.2
2021-04-18 19:55:00 57.3 39.8 33.0 57.3 57.3 4.6 4.9 3.0 99.2 114.8 0.00 0.0001738 61.2
2021-04-18 20:00:00 56.9 39.7 32.7 56.9 56.9 2.4 4.7 2.4 129.3 120.3 0.00 0.0000707 61.1
2021-04-18 20:05:00 56.8 40.0 32.7 56.8 56.8 6.0 6.3 3.3 105.9 111.8 0.00 0.0000000 61.1
2021-04-18 20:10:00 56.7 40.3 32.9 56.7 56.7 4.9 7.2 5.4 106.9 104.3 0.00 0.0000000 61.0
2021-04-18 20:15:00 56.5 40.8 32.9 56.5 56.5 3.0 6.2 4.5 107.4 105.5 0.00 0.0000000 61.0
2021-04-18 20:20:00 56.4 41.6 33.4 56.4 56.4 2.8 7.4 4.6 112.2 121.2 0.00 0.0000000 60.9
2021-04-18 20:25:00 56.1 41.7 33.1 56.1 56.1 4.4 7.1 3.8 156.5 122.1 0.00 0.0000000 60.9
2021-04-18 20:30:00 55.8 41.8 33.0 55.8 55.8 3.3 6.0 3.9 94.1 119.9 0.00 0.0000000 60.8
2021-04-18 20:35:00 55.9 42.0 33.1 55.9 55.9 3.8 5.1 3.5 140.5 129.7 0.00 0.0000000 60.7
2021-04-18 20:40:00 55.8 42.4 33.3 55.8 55.8 1.9 6.2 3.6 132.8 135.4 0.00 0.0000061 60.7
2021-04-18 20:45:00 55.5 43.0 33.4 55.5 55.5 0.0 4.9 2.5 129.5 138.5 0.00 0.0000020 60.6
2021-04-18 20:50:00 55.5 42.7 33.2 55.5 55.5 5.5 5.5 3.1 148.9 138.8 0.00 0.0000061 60.6
2021-04-18 20:55:00 55.4 42.9 33.2 55.4 55.4 2.8 6.7 3.5 154.4 133.0 0.00 0.0000081 60.5
2021-04-18 21:00:00 55.4 43.8 33.7 55.4 55.4 2.6 4.6 3.0 116.9 133.8 0.00 0.0000081 60.5
2021-04-18 21:05:00 55.5 42.9 33.3 55.5 55.5 3.7 4.9 3.4 128.6 132.1 0.00 0.0000182 60.4
2021-04-18 21:10:00 55.4 42.8 33.2 55.4 55.4 3.3 6.9 3.6 141.5 125.0 0.00 0.0000081 60.4
2021-04-18 21:15:00 55.6 42.7 33.3 55.6 55.6 3.8 7.8 5.4 172.4 132.0 0.00 0.0000101 60.3
2021-04-18 21:20:00 55.6 42.6 33.2 55.6 55.6 4.0 8.8 5.5 111.6 134.3 0.00 0.0000162 60.2
2021-04-18 21:25:00 55.4 43.1 33.3 55.4 55.4 3.1 6.9 5.0 133.5 130.6 0.00 0.0000141 60.2
2021-04-18 21:30:00 55.4 43.2 33.3 55.4 55.4 5.3 10.1 4.7 153.6 138.9 0.00 0.0000141 60.1
2021-04-18 21:35:00 55.3 43.5 33.4 55.3 55.3 4.2 6.3 4.7 143.3 136.4 0.00 0.0000162 60.1
2021-04-18 21:40:00 55.2 43.5 33.4 55.2 55.2 5.8 9.0 5.4 112.2 130.1 0.00 0.0000182 60.0
2021-04-18 21:45:00 55.2 43.6 33.4 55.2 55.2 4.9 6.2 4.5 131.9 124.6 0.00 0.0000162 60.0
2021-04-18 21:50:00 54.9 43.5 33.1 54.9 54.9 7.1 7.6 5.1 102.8 121.5 0.00 0.0000121 59.9
2021-04-18 21:55:00 54.9 43.4 33.0 54.9 54.9 7.1 7.8 5.7 132.6 113.2 0.00 0.0000162 59.8

Data is courtesy of the NM Climate Center. DO NOT USE IN LEGAL PROCEEDINGS.